sensor_id;sensor_type;location;lat;lon;timestamp;P1;durP1;ratioP1;P2;durP2;ratioP2
8104;SDS011;4095;48.942;9.104;2023-08-21T00:02:25;7.43;;;5.90;;
8104;SDS011;4095;48.942;9.104;2023-08-21T00:04:52;6.47;;;5.68;;
8104;SDS011;4095;48.942;9.104;2023-08-21T00:07:18;6.32;;;5.72;;
8104;SDS011;4095;48.942;9.104;2023-08-21T00:09:44;7.70;;;6.35;;
8104;SDS011;4095;48.942;9.104;2023-08-21T00:12:10;6.28;;;5.68;;
8104;SDS011;4095;48.942;9.104;2023-08-21T00:14:35;6.75;;;5.45;;
8104;SDS011;4095;48.942;9.104;2023-08-21T00:17:01;7.47;;;6.53;;
8104;SDS011;4095;48.942;9.104;2023-08-21T00:19:31;6.57;;;5.95;;
8104;SDS011;4095;48.942;9.104;2023-08-21T00:21:57;7.63;;;6.30;;
8104;SDS011;4095;48.942;9.104;2023-08-21T00:24:23;6.97;;;6.28;;
8104;SDS011;4095;48.942;9.104;2023-08-21T00:26:48;7.47;;;6.05;;
8104;SDS011;4095;48.942;9.104;2023-08-21T00:29:14;6.90;;;5.97;;
8104;SDS011;4095;48.942;9.104;2023-08-21T00:31:40;7.72;;;5.60;;
8104;SDS011;4095;48.942;9.104;2023-08-21T00:34:05;7.47;;;6.30;;
8104;SDS011;4095;48.942;9.104;2023-08-21T00:36:32;9.02;;;5.88;;
8104;SDS011;4095;48.942;9.104;2023-08-21T00:38:58;7.80;;;6.15;;
8104;SDS011;4095;48.942;9.104;2023-08-21T00:41:23;6.50;;;5.93;;
8104;SDS011;4095;48.942;9.104;2023-08-21T00:43:49;7.03;;;6.35;;
8104;SDS011;4095;48.942;9.104;2023-08-21T00:46:15;6.30;;;5.70;;
8104;SDS011;4095;48.942;9.104;2023-08-21T00:48:42;6.47;;;5.63;;
8104;SDS011;4095;48.942;9.104;2023-08-21T00:51:08;7.22;;;5.97;;
8104;SDS011;4095;48.942;9.104;2023-08-21T00:53:35;6.97;;;6.30;;
8104;SDS011;4095;48.942;9.104;2023-08-21T00:56:01;7.30;;;6.60;;
8104;SDS011;4095;48.942;9.104;2023-08-21T00:58:27;6.53;;;5.47;;
8104;SDS011;4095;48.942;9.104;2023-08-21T01:00:53;7.05;;;6.20;;
8104;SDS011;4095;48.942;9.104;2023-08-21T01:03:19;8.18;;;5.97;;
8104;SDS011;4095;48.942;9.104;2023-08-21T01:05:44;6.65;;;6.03;;
8104;SDS011;4095;48.942;9.104;2023-08-21T01:08:28;6.93;;;6.22;;
8104;SDS011;4095;48.942;9.104;2023-08-21T01:11:02;7.25;;;6.55;;
8104;SDS011;4095;48.942;9.104;2023-08-21T01:16:11;7.28;;;6.28;;
8104;SDS011;4095;48.942;9.104;2023-08-21T01:18:39;7.75;;;6.85;;
8104;SDS011;4095;48.942;9.104;2023-08-21T01:21:06;7.28;;;6.20;;
8104;SDS011;4095;48.942;9.104;2023-08-21T01:23:33;7.18;;;6.57;;
8104;SDS011;4095;48.942;9.104;2023-08-21T01:26:03;8.23;;;6.93;;
8104;SDS011;4095;48.942;9.104;2023-08-21T01:28:29;7.70;;;6.95;;
8104;SDS011;4095;48.942;9.104;2023-08-21T01:31:21;8.43;;;7.30;;
8104;SDS011;4095;48.942;9.104;2023-08-21T01:33:58;7.88;;;6.70;;
8104;SDS011;4095;48.942;9.104;2023-08-21T01:36:26;9.85;;;6.82;;
8104;SDS011;4095;48.942;9.104;2023-08-21T01:38:53;7.75;;;7.00;;
8104;SDS011;4095;48.942;9.104;2023-08-21T01:41:19;7.80;;;6.35;;
8104;SDS011;4095;48.942;9.104;2023-08-21T01:43:51;7.50;;;6.60;;
8104;SDS011;4095;48.942;9.104;2023-08-21T01:46:17;7.68;;;6.57;;
8104;SDS011;4095;48.942;9.104;2023-08-21T01:48:42;8.90;;;6.50;;
8104;SDS011;4095;48.942;9.104;2023-08-21T01:51:08;7.03;;;6.32;;
8104;SDS011;4095;48.942;9.104;2023-08-21T01:53:34;8.55;;;6.38;;
8104;SDS011;4095;48.942;9.104;2023-08-21T01:55:59;7.20;;;6.50;;
8104;SDS011;4095;48.942;9.104;2023-08-21T01:58:25;7.10;;;6.38;;
8104;SDS011;4095;48.942;9.104;2023-08-21T02:00:50;7.57;;;6.78;;
8104;SDS011;4095;48.942;9.104;2023-08-21T02:03:16;7.03;;;6.32;;
8104;SDS011;4095;48.942;9.104;2023-08-21T02:05:42;7.07;;;6.43;;
8104;SDS011;4095;48.942;9.104;2023-08-21T02:08:10;7.00;;;6.32;;
8104;SDS011;4095;48.942;9.104;2023-08-21T02:10:49;7.13;;;6.40;;
8104;SDS011;4095;48.942;9.104;2023-08-21T02:13:15;7.38;;;6.60;;
8104;SDS011;4095;48.942;9.104;2023-08-21T02:15:41;6.70;;;6.05;;
8104;SDS011;4095;48.942;9.104;2023-08-21T02:18:06;7.00;;;6.40;;
8104;SDS011;4095;48.942;9.104;2023-08-21T02:20:32;7.55;;;6.60;;
8104;SDS011;4095;48.942;9.104;2023-08-21T02:22:57;8.02;;;6.55;;
8104;SDS011;4095;48.942;9.104;2023-08-21T02:25:23;7.03;;;6.38;;
8104;SDS011;4095;48.942;9.104;2023-08-21T02:27:48;7.78;;;5.85;;
8104;SDS011;4095;48.942;9.104;2023-08-21T02:30:14;7.28;;;6.40;;
8104;SDS011;4095;48.942;9.104;2023-08-21T02:32:39;9.15;;;6.72;;
8104;SDS011;4095;48.942;9.104;2023-08-21T02:35:06;7.93;;;6.63;;
8104;SDS011;4095;48.942;9.104;2023-08-21T02:37:33;7.15;;;6.25;;
8104;SDS011;4095;48.942;9.104;2023-08-21T02:39:58;7.47;;;6.25;;
8104;SDS011;4095;48.942;9.104;2023-08-21T02:42:24;7.40;;;6.70;;
8104;SDS011;4095;48.942;9.104;2023-08-21T02:44:50;7.43;;;6.43;;
8104;SDS011;4095;48.942;9.104;2023-08-21T02:47:16;7.68;;;6.60;;
8104;SDS011;4095;48.942;9.104;2023-08-21T02:49:41;6.78;;;6.18;;
8104;SDS011;4095;48.942;9.104;2023-08-21T02:52:07;6.82;;;6.13;;
8104;SDS011;4095;48.942;9.104;2023-08-21T02:54:33;6.80;;;6.20;;
8104;SDS011;4095;48.942;9.104;2023-08-21T02:56:58;10.48;;;6.78;;
8104;SDS011;4095;48.942;9.104;2023-08-21T02:59:24;7.32;;;6.22;;
8104;SDS011;4095;48.942;9.104;2023-08-21T03:01:49;7.20;;;6.60;;
8104;SDS011;4095;48.942;9.104;2023-08-21T03:04:15;7.15;;;6.38;;
8104;SDS011;4095;48.942;9.104;2023-08-21T03:06:41;7.68;;;6.32;;
8104;SDS011;4095;48.942;9.104;2023-08-21T03:09:06;7.32;;;6.63;;
8104;SDS011;4095;48.942;9.104;2023-08-21T03:11:32;8.80;;;6.88;;
8104;SDS011;4095;48.942;9.104;2023-08-21T03:13:57;7.40;;;6.50;;
8104;SDS011;4095;48.942;9.104;2023-08-21T03:16:23;6.90;;;6.30;;
8104;SDS011;4095;48.942;9.104;2023-08-21T03:18:56;7.32;;;6.63;;
8104;SDS011;4095;48.942;9.104;2023-08-21T03:21:23;7.05;;;6.40;;
8104;SDS011;4095;48.942;9.104;2023-08-21T03:23:54;7.22;;;6.60;;
8104;SDS011;4095;48.942;9.104;2023-08-21T03:26:22;7.03;;;6.43;;
8104;SDS011;4095;48.942;9.104;2023-08-21T03:28:48;7.20;;;6.53;;
8104;SDS011;4095;48.942;9.104;2023-08-21T03:31:14;7.82;;;6.30;;
8104;SDS011;4095;48.942;9.104;2023-08-21T03:33:40;7.75;;;6.60;;
8104;SDS011;4095;48.942;9.104;2023-08-21T03:36:06;7.30;;;6.60;;
8104;SDS011;4095;48.942;9.104;2023-08-21T03:38:31;6.80;;;6.20;;
8104;SDS011;4095;48.942;9.104;2023-08-21T03:40:57;7.18;;;6.45;;
8104;SDS011;4095;48.942;9.104;2023-08-21T03:43:22;7.28;;;6.47;;
8104;SDS011;4095;48.942;9.104;2023-08-21T03:45:48;7.43;;;6.45;;
8104;SDS011;4095;48.942;9.104;2023-08-21T03:48:13;7.22;;;6.53;;
8104;SDS011;4095;48.942;9.104;2023-08-21T03:50:39;8.70;;;6.40;;
8104;SDS011;4095;48.942;9.104;2023-08-21T03:53:05;7.32;;;6.53;;
8104;SDS011;4095;48.942;9.104;2023-08-21T03:55:30;8.13;;;6.20;;
8104;SDS011;4095;48.942;9.104;2023-08-21T03:57:56;7.85;;;6.40;;
8104;SDS011;4095;48.942;9.104;2023-08-21T04:00:21;7.00;;;6.07;;
8104;SDS011;4095;48.942;9.104;2023-08-21T04:02:47;7.20;;;6.57;;
8104;SDS011;4095;48.942;9.104;2023-08-21T04:05:12;7.72;;;6.15;;
8104;SDS011;4095;48.942;9.104;2023-08-21T04:07:38;7.05;;;6.45;;
8104;SDS011;4095;48.942;9.104;2023-08-21T04:10:05;7.88;;;7.07;;
8104;SDS011;4095;48.942;9.104;2023-08-21T04:12:31;7.45;;;6.78;;
8104;SDS011;4095;48.942;9.104;2023-08-21T04:14:57;9.25;;;7.53;;
8104;SDS011;4095;48.942;9.104;2023-08-21T04:17:22;8.23;;;6.47;;
8104;SDS011;4095;48.942;9.104;2023-08-21T04:19:49;7.35;;;6.65;;
8104;SDS011;4095;48.942;9.104;2023-08-21T04:22:15;7.65;;;6.85;;
8104;SDS011;4095;48.942;9.104;2023-08-21T04:24:41;9.65;;;6.60;;
8104;SDS011;4095;48.942;9.104;2023-08-21T04:27:07;7.10;;;6.38;;
8104;SDS011;4095;48.942;9.104;2023-08-21T04:29:33;7.00;;;6.38;;
8104;SDS011;4095;48.942;9.104;2023-08-21T04:32:00;7.28;;;6.57;;
8104;SDS011;4095;48.942;9.104;2023-08-21T04:34:26;7.43;;;6.40;;
8104;SDS011;4095;48.942;9.104;2023-08-21T04:36:51;8.13;;;6.72;;
8104;SDS011;4095;48.942;9.104;2023-08-21T04:39:17;7.90;;;7.20;;
8104;SDS011;4095;48.942;9.104;2023-08-21T04:41:43;7.65;;;6.85;;
8104;SDS011;4095;48.942;9.104;2023-08-21T04:44:08;7.22;;;6.47;;
8104;SDS011;4095;48.942;9.104;2023-08-21T04:46:34;7.32;;;6.63;;
8104;SDS011;4095;48.942;9.104;2023-08-21T04:49:00;7.57;;;6.88;;
8104;SDS011;4095;48.942;9.104;2023-08-21T04:51:25;7.65;;;6.90;;
8104;SDS011;4095;48.942;9.104;2023-08-21T04:53:51;8.55;;;7.10;;
8104;SDS011;4095;48.942;9.104;2023-08-21T04:56:16;8.23;;;7.38;;
8104;SDS011;4095;48.942;9.104;2023-08-21T04:58:42;8.32;;;7.38;;
8104;SDS011;4095;48.942;9.104;2023-08-21T05:01:08;8.23;;;7.30;;
8104;SDS011;4095;48.942;9.104;2023-08-21T05:03:33;7.40;;;6.80;;
8104;SDS011;4095;48.942;9.104;2023-08-21T05:05:59;9.00;;;7.32;;
8104;SDS011;4095;48.942;9.104;2023-08-21T05:08:25;7.50;;;6.80;;
8104;SDS011;4095;48.942;9.104;2023-08-21T05:10:58;8.50;;;6.75;;
8104;SDS011;4095;48.942;9.104;2023-08-21T05:13:24;7.95;;;7.15;;
8104;SDS011;4095;48.942;9.104;2023-08-21T05:15:57;7.50;;;6.85;;
8104;SDS011;4095;48.942;9.104;2023-08-21T05:18:23;10.50;;;7.60;;
8104;SDS011;4095;48.942;9.104;2023-08-21T05:20:50;7.68;;;6.90;;
8104;SDS011;4095;48.942;9.104;2023-08-21T05:23:16;7.53;;;6.82;;
8104;SDS011;4095;48.942;9.104;2023-08-21T05:25:42;8.23;;;7.47;;
8104;SDS011;4095;48.942;9.104;2023-08-21T05:28:09;9.68;;;7.80;;
8104;SDS011;4095;48.942;9.104;2023-08-21T05:30:38;8.10;;;7.40;;
8104;SDS011;4095;48.942;9.104;2023-08-21T05:33:03;8.93;;;8.02;;
8104;SDS011;4095;48.942;9.104;2023-08-21T05:35:32;8.45;;;7.53;;
8104;SDS011;4095;48.942;9.104;2023-08-21T05:38:02;8.88;;;8.10;;
8104;SDS011;4095;48.942;9.104;2023-08-21T05:40:28;8.15;;;7.40;;
8104;SDS011;4095;48.942;9.104;2023-08-21T05:42:53;8.90;;;8.02;;
8104;SDS011;4095;48.942;9.104;2023-08-21T05:45:19;7.45;;;6.82;;
8104;SDS011;4095;48.942;9.104;2023-08-21T05:47:45;8.20;;;7.22;;
8104;SDS011;4095;48.942;9.104;2023-08-21T05:50:10;8.38;;;7.47;;
8104;SDS011;4095;48.942;9.104;2023-08-21T05:52:36;7.60;;;6.90;;
8104;SDS011;4095;48.942;9.104;2023-08-21T05:55:02;8.40;;;7.60;;
8104;SDS011;4095;48.942;9.104;2023-08-21T05:57:27;7.72;;;7.05;;
8104;SDS011;4095;48.942;9.104;2023-08-21T05:59:53;7.03;;;6.43;;
8104;SDS011;4095;48.942;9.104;2023-08-21T06:02:19;7.57;;;6.78;;
8104;SDS011;4095;48.942;9.104;2023-08-21T06:04:45;7.40;;;6.63;;
8104;SDS011;4095;48.942;9.104;2023-08-21T06:07:10;8.35;;;7.55;;
8104;SDS011;4095;48.942;9.104;2023-08-21T06:09:36;9.95;;;7.03;;
8104;SDS011;4095;48.942;9.104;2023-08-21T06:12:02;7.63;;;6.68;;
8104;SDS011;4095;48.942;9.104;2023-08-21T06:14:29;7.57;;;6.78;;
8104;SDS011;4095;48.942;9.104;2023-08-21T06:16:59;8.25;;;6.80;;
8104;SDS011;4095;48.942;9.104;2023-08-21T06:19:26;6.63;;;6.03;;
8104;SDS011;4095;48.942;9.104;2023-08-21T06:21:52;8.48;;;6.30;;
8104;SDS011;4095;48.942;9.104;2023-08-21T06:24:18;7.22;;;6.57;;
8104;SDS011;4095;48.942;9.104;2023-08-21T06:26:43;8.48;;;6.10;;
8104;SDS011;4095;48.942;9.104;2023-08-21T06:29:09;7.43;;;6.20;;
8104;SDS011;4095;48.942;9.104;2023-08-21T06:31:34;8.75;;;6.07;;
8104;SDS011;4095;48.942;9.104;2023-08-21T06:34:00;6.80;;;6.20;;
8104;SDS011;4095;48.942;9.104;2023-08-21T06:36:25;7.15;;;5.72;;
8104;SDS011;4095;48.942;9.104;2023-08-21T06:38:51;6.57;;;5.97;;
8104;SDS011;4095;48.942;9.104;2023-08-21T06:41:17;7.47;;;5.88;;
8104;SDS011;4095;48.942;9.104;2023-08-21T06:43:42;6.40;;;5.80;;
8104;SDS011;4095;48.942;9.104;2023-08-21T06:46:08;7.03;;;5.68;;
8104;SDS011;4095;48.942;9.104;2023-08-21T06:48:34;6.30;;;5.70;;
8104;SDS011;4095;48.942;9.104;2023-08-21T06:51:02;7.20;;;5.63;;
8104;SDS011;4095;48.942;9.104;2023-08-21T06:53:28;7.15;;;6.30;;
8104;SDS011;4095;48.942;9.104;2023-08-21T06:55:54;8.70;;;6.22;;
8104;SDS011;4095;48.942;9.104;2023-08-21T06:58:20;6.57;;;5.75;;
8104;SDS011;4095;48.942;9.104;2023-08-21T07:00:46;6.35;;;5.70;;
8104;SDS011;4095;48.942;9.104;2023-08-21T07:03:11;6.97;;;6.05;;
8104;SDS011;4095;48.942;9.104;2023-08-21T07:05:37;6.25;;;5.63;;
8104;SDS011;4095;48.942;9.104;2023-08-21T07:08:03;7.40;;;5.30;;
8104;SDS011;4095;48.942;9.104;2023-08-21T07:10:29;6.78;;;5.38;;
8104;SDS011;4095;48.942;9.104;2023-08-21T07:12:54;7.45;;;5.50;;
8104;SDS011;4095;48.942;9.104;2023-08-21T07:15:20;5.93;;;5.43;;
8104;SDS011;4095;48.942;9.104;2023-08-21T07:17:46;6.07;;;5.30;;
8104;SDS011;4095;48.942;9.104;2023-08-21T07:20:12;6.72;;;5.63;;
8104;SDS011;4095;48.942;9.104;2023-08-21T07:22:38;7.38;;;5.75;;
8104;SDS011;4095;48.942;9.104;2023-08-21T07:25:04;6.57;;;6.00;;
8104;SDS011;4095;48.942;9.104;2023-08-21T07:27:30;8.85;;;5.57;;
8104;SDS011;4095;48.942;9.104;2023-08-21T07:29:56;6.03;;;5.43;;
8104;SDS011;4095;48.942;9.104;2023-08-21T07:32:21;5.72;;;5.03;;
8104;SDS011;4095;48.942;9.104;2023-08-21T07:34:47;7.00;;;6.32;;
8104;SDS011;4095;48.942;9.104;2023-08-21T07:37:17;6.18;;;5.68;;
8104;SDS011;4095;48.942;9.104;2023-08-21T07:39:42;6.65;;;5.88;;
8104;SDS011;4095;48.942;9.104;2023-08-21T07:42:10;6.57;;;5.65;;
8104;SDS011;4095;48.942;9.104;2023-08-21T07:44:37;8.15;;;5.68;;
8104;SDS011;4095;48.942;9.104;2023-08-21T07:47:03;5.90;;;5.30;;
8104;SDS011;4095;48.942;9.104;2023-08-21T07:49:29;6.78;;;6.03;;
8104;SDS011;4095;48.942;9.104;2023-08-21T07:51:55;9.18;;;5.97;;
8104;SDS011;4095;48.942;9.104;2023-08-21T07:54:21;6.10;;;5.38;;
8104;SDS011;4095;48.942;9.104;2023-08-21T07:56:46;6.85;;;5.70;;
8104;SDS011;4095;48.942;9.104;2023-08-21T07:59:12;6.97;;;5.70;;
8104;SDS011;4095;48.942;9.104;2023-08-21T08:01:38;5.93;;;5.32;;
8104;SDS011;4095;48.942;9.104;2023-08-21T08:04:04;6.95;;;5.57;;
8104;SDS011;4095;48.942;9.104;2023-08-21T08:06:30;7.00;;;5.20;;
8104;SDS011;4095;48.942;9.104;2023-08-21T08:08:56;5.85;;;5.13;;
8104;SDS011;4095;48.942;9.104;2023-08-21T08:11:22;6.50;;;5.60;;
8104;SDS011;4095;48.942;9.104;2023-08-21T08:13:48;6.75;;;5.57;;
8104;SDS011;4095;48.942;9.104;2023-08-21T08:16:13;7.40;;;5.47;;
8104;SDS011;4095;48.942;9.104;2023-08-21T08:18:39;8.23;;;5.57;;
8104;SDS011;4095;48.942;9.104;2023-08-21T08:21:05;9.88;;;5.40;;
8104;SDS011;4095;48.942;9.104;2023-08-21T08:23:30;6.13;;;5.53;;
8104;SDS011;4095;48.942;9.104;2023-08-21T08:25:56;6.35;;;5.53;;
8104;SDS011;4095;48.942;9.104;2023-08-21T08:28:22;6.43;;;5.43;;
8104;SDS011;4095;48.942;9.104;2023-08-21T08:30:47;5.70;;;5.10;;
8104;SDS011;4095;48.942;9.104;2023-08-21T08:33:13;7.28;;;5.50;;
8104;SDS011;4095;48.942;9.104;2023-08-21T08:35:38;7.05;;;5.72;;
8104;SDS011;4095;48.942;9.104;2023-08-21T08:38:05;7.93;;;5.32;;
8104;SDS011;4095;48.942;9.104;2023-08-21T08:40:31;6.85;;;5.85;;
8104;SDS011;4095;48.942;9.104;2023-08-21T08:42:57;7.25;;;5.38;;
8104;SDS011;4095;48.942;9.104;2023-08-21T08:45:32;9.63;;;5.88;;
8104;SDS011;4095;48.942;9.104;2023-08-21T08:47:59;6.30;;;5.65;;
8104;SDS011;4095;48.942;9.104;2023-08-21T08:50:28;6.32;;;5.43;;
8104;SDS011;4095;48.942;9.104;2023-08-21T08:52:55;6.60;;;5.45;;
8104;SDS011;4095;48.942;9.104;2023-08-21T08:55:22;7.18;;;5.57;;
8104;SDS011;4095;48.942;9.104;2023-08-21T08:57:47;6.38;;;5.20;;
8104;SDS011;4095;48.942;9.104;2023-08-21T09:00:13;7.97;;;6.00;;
8104;SDS011;4095;48.942;9.104;2023-08-21T09:02:39;8.00;;;5.55;;
8104;SDS011;4095;48.942;9.104;2023-08-21T09:05:05;6.70;;;5.35;;
8104;SDS011;4095;48.942;9.104;2023-08-21T09:07:31;6.32;;;5.07;;
8104;SDS011;4095;48.942;9.104;2023-08-21T09:09:57;6.50;;;5.00;;
8104;SDS011;4095;48.942;9.104;2023-08-21T09:12:23;6.97;;;5.45;;
8104;SDS011;4095;48.942;9.104;2023-08-21T09:14:48;6.88;;;5.53;;
8104;SDS011;4095;48.942;9.104;2023-08-21T09:17:14;5.50;;;5.00;;
8104;SDS011;4095;48.942;9.104;2023-08-21T09:19:41;6.85;;;4.95;;
8104;SDS011;4095;48.942;9.104;2023-08-21T09:24:38;5.68;;;4.70;;
8104;SDS011;4095;48.942;9.104;2023-08-21T09:27:11;6.72;;;5.32;;
8104;SDS011;4095;48.942;9.104;2023-08-21T09:29:39;5.65;;;5.05;;
8104;SDS011;4095;48.942;9.104;2023-08-21T09:32:05;5.43;;;4.93;;
8104;SDS011;4095;48.942;9.104;2023-08-21T09:34:35;5.15;;;4.75;;
8104;SDS011;4095;48.942;9.104;2023-08-21T09:37:07;5.78;;;5.25;;
8104;SDS011;4095;48.942;9.104;2023-08-21T09:39:35;5.63;;;5.13;;
8104;SDS011;4095;48.942;9.104;2023-08-21T09:42:07;6.35;;;4.47;;
8104;SDS011;4095;48.942;9.104;2023-08-21T09:44:40;6.55;;;5.03;;
8104;SDS011;4095;48.942;9.104;2023-08-21T09:47:11;6.80;;;4.50;;
8104;SDS011;4095;48.942;9.104;2023-08-21T09:49:37;7.85;;;5.10;;
8104;SDS011;4095;48.942;9.104;2023-08-21T09:52:05;6.82;;;4.50;;
8104;SDS011;4095;48.942;9.104;2023-08-21T09:54:33;5.57;;;4.55;;
8104;SDS011;4095;48.942;9.104;2023-08-21T09:57:02;5.68;;;4.20;;
8104;SDS011;4095;48.942;9.104;2023-08-21T09:59:29;6.28;;;4.45;;
8104;SDS011;4095;48.942;9.104;2023-08-21T10:01:56;5.68;;;5.15;;
8104;SDS011;4095;48.942;9.104;2023-08-21T10:04:28;6.75;;;4.68;;
8104;SDS011;4095;48.942;9.104;2023-08-21T10:06:55;6.95;;;5.07;;
8104;SDS011;4095;48.942;9.104;2023-08-21T10:09:23;5.78;;;5.05;;
8104;SDS011;4095;48.942;9.104;2023-08-21T10:11:49;5.20;;;4.70;;
8104;SDS011;4095;48.942;9.104;2023-08-21T10:14:16;6.68;;;4.53;;
8104;SDS011;4095;48.942;9.104;2023-08-21T10:16:44;10.10;;;4.75;;
8104;SDS011;4095;48.942;9.104;2023-08-21T10:19:12;6.10;;;4.90;;
8104;SDS011;4095;48.942;9.104;2023-08-21T10:21:39;5.47;;;4.75;;
8104;SDS011;4095;48.942;9.104;2023-08-21T10:24:05;4.65;;;4.20;;
8104;SDS011;4095;48.942;9.104;2023-08-21T10:26:31;5.22;;;4.72;;
8104;SDS011;4095;48.942;9.104;2023-08-21T10:29:02;4.80;;;4.35;;
8104;SDS011;4095;48.942;9.104;2023-08-21T10:33:59;5.28;;;4.50;;
8104;SDS011;4095;48.942;9.104;2023-08-21T10:49:53;5.15;;;3.70;;
8104;SDS011;4095;48.942;9.104;2023-08-21T10:52:20;6.32;;;3.80;;
8104;SDS011;4095;48.942;9.104;2023-08-21T10:54:55;6.22;;;4.30;;
8104;SDS011;4095;48.942;9.104;2023-08-21T10:57:22;8.88;;;3.88;;
8104;SDS011;4095;48.942;9.104;2023-08-21T10:59:56;4.43;;;3.78;;
8104;SDS011;4095;48.942;9.104;2023-08-21T11:02:29;5.25;;;3.50;;
8104;SDS011;4095;48.942;9.104;2023-08-21T11:04:56;6.70;;;3.90;;
8104;SDS011;4095;48.942;9.104;2023-08-21T11:07:23;4.55;;;3.55;;
8104;SDS011;4095;48.942;9.104;2023-08-21T11:09:50;5.93;;;3.90;;
8104;SDS011;4095;48.942;9.104;2023-08-21T11:12:16;5.00;;;4.05;;
8104;SDS011;4095;48.942;9.104;2023-08-21T11:14:44;6.32;;;4.20;;
8104;SDS011;4095;48.942;9.104;2023-08-21T11:17:10;4.40;;;3.80;;
8104;SDS011;4095;48.942;9.104;2023-08-21T11:19:36;5.40;;;3.63;;
8104;SDS011;4095;48.942;9.104;2023-08-21T11:22:02;7.50;;;3.90;;
8104;SDS011;4095;48.942;9.104;2023-08-21T11:24:30;5.20;;;3.72;;
8104;SDS011;4095;48.942;9.104;2023-08-21T11:27:06;6.07;;;3.80;;
8104;SDS011;4095;48.942;9.104;2023-08-21T11:29:39;8.23;;;4.10;;
8104;SDS011;4095;48.942;9.104;2023-08-21T11:34:37;8.15;;;3.65;;
8104;SDS011;4095;48.942;9.104;2023-08-21T11:37:04;4.72;;;3.88;;
8104;SDS011;4095;48.942;9.104;2023-08-21T11:39:51;4.97;;;3.70;;
8104;SDS011;4095;48.942;9.104;2023-08-21T11:42:18;6.65;;;3.90;;
8104;SDS011;4095;48.942;9.104;2023-08-21T11:44:52;5.85;;;3.83;;
8104;SDS011;4095;48.942;9.104;2023-08-21T11:47:18;4.68;;;3.58;;
8104;SDS011;4095;48.942;9.104;2023-08-21T11:49:45;5.85;;;4.10;;
8104;SDS011;4095;48.942;9.104;2023-08-21T11:52:21;4.97;;;4.20;;
8104;SDS011;4095;48.942;9.104;2023-08-21T11:54:53;5.00;;;4.03;;
8104;SDS011;4095;48.942;9.104;2023-08-21T11:57:21;5.25;;;4.07;;
8104;SDS011;4095;48.942;9.104;2023-08-21T11:59:53;6.57;;;3.83;;
8104;SDS011;4095;48.942;9.104;2023-08-21T12:02:23;6.30;;;3.63;;
8104;SDS011;4095;48.942;9.104;2023-08-21T12:05:05;4.30;;;3.75;;
8104;SDS011;4095;48.942;9.104;2023-08-21T12:07:32;8.90;;;4.63;;
8104;SDS011;4095;48.942;9.104;2023-08-21T12:09:58;5.65;;;4.10;;
8104;SDS011;4095;48.942;9.104;2023-08-21T12:12:24;4.10;;;3.65;;
8104;SDS011;4095;48.942;9.104;2023-08-21T12:14:50;5.18;;;4.28;;
8104;SDS011;4095;48.942;9.104;2023-08-21T12:17:16;4.90;;;3.40;;
8104;SDS011;4095;48.942;9.104;2023-08-21T12:19:41;6.38;;;4.13;;
8104;SDS011;4095;48.942;9.104;2023-08-21T12:22:08;7.95;;;4.05;;
8104;SDS011;4095;48.942;9.104;2023-08-21T12:24:34;5.47;;;3.92;;
8104;SDS011;4095;48.942;9.104;2023-08-21T12:27:00;5.15;;;3.70;;
8104;SDS011;4095;48.942;9.104;2023-08-21T12:29:26;6.10;;;3.95;;
8104;SDS011;4095;48.942;9.104;2023-08-21T12:31:52;5.40;;;4.15;;
8104;SDS011;4095;48.942;9.104;2023-08-21T12:34:17;4.10;;;3.70;;
8104;SDS011;4095;48.942;9.104;2023-08-21T12:36:43;5.75;;;3.92;;
8104;SDS011;4095;48.942;9.104;2023-08-21T12:39:08;5.07;;;3.83;;
8104;SDS011;4095;48.942;9.104;2023-08-21T12:41:34;4.20;;;3.72;;
8104;SDS011;4095;48.942;9.104;2023-08-21T12:44:00;5.95;;;3.97;;
8104;SDS011;4095;48.942;9.104;2023-08-21T12:46:28;4.88;;;3.65;;
8104;SDS011;4095;48.942;9.104;2023-08-21T12:48:54;4.38;;;3.70;;
8104;SDS011;4095;48.942;9.104;2023-08-21T12:51:20;4.95;;;3.53;;
8104;SDS011;4095;48.942;9.104;2023-08-21T12:53:46;4.97;;;4.03;;
8104;SDS011;4095;48.942;9.104;2023-08-21T12:56:12;5.13;;;3.90;;
8104;SDS011;4095;48.942;9.104;2023-08-21T12:58:38;4.90;;;3.58;;
8104;SDS011;4095;48.942;9.104;2023-08-21T13:01:03;4.03;;;3.60;;
8104;SDS011;4095;48.942;9.104;2023-08-21T13:03:30;4.53;;;4.07;;
8104;SDS011;4095;48.942;9.104;2023-08-21T13:05:56;8.05;;;3.92;;
8104;SDS011;4095;48.942;9.104;2023-08-21T13:08:21;4.82;;;4.03;;
8104;SDS011;4095;48.942;9.104;2023-08-21T13:10:47;4.32;;;3.47;;
8104;SDS011;4095;48.942;9.104;2023-08-21T13:13:13;6.35;;;3.80;;
8104;SDS011;4095;48.942;9.104;2023-08-21T13:15:38;4.07;;;3.47;;
8104;SDS011;4095;48.942;9.104;2023-08-21T13:18:04;6.10;;;3.67;;
8104;SDS011;4095;48.942;9.104;2023-08-21T13:20:30;7.50;;;4.07;;
8104;SDS011;4095;48.942;9.104;2023-08-21T13:22:55;7.18;;;4.28;;
8104;SDS011;4095;48.942;9.104;2023-08-21T13:25:24;4.68;;;4.15;;
8104;SDS011;4095;48.942;9.104;2023-08-21T13:27:50;5.20;;;3.85;;
8104;SDS011;4095;48.942;9.104;2023-08-21T13:30:17;4.70;;;3.95;;
8104;SDS011;4095;48.942;9.104;2023-08-21T13:32:42;4.75;;;3.58;;
8104;SDS011;4095;48.942;9.104;2023-08-21T13:35:08;5.63;;;4.05;;
8104;SDS011;4095;48.942;9.104;2023-08-21T13:37:34;4.60;;;4.10;;
8104;SDS011;4095;48.942;9.104;2023-08-21T13:40:04;4.25;;;3.85;;
8104;SDS011;4095;48.942;9.104;2023-08-21T13:42:40;4.20;;;3.80;;
8104;SDS011;4095;48.942;9.104;2023-08-21T13:45:14;5.90;;;4.68;;
8104;SDS011;4095;48.942;9.104;2023-08-21T13:47:42;3.92;;;3.63;;
8104;SDS011;4095;48.942;9.104;2023-08-21T13:50:09;5.10;;;4.03;;
8104;SDS011;4095;48.942;9.104;2023-08-21T13:52:35;5.90;;;3.90;;
8104;SDS011;4095;48.942;9.104;2023-08-21T13:55:03;4.78;;;3.97;;
8104;SDS011;4095;48.942;9.104;2023-08-21T13:57:30;4.38;;;3.97;;
8104;SDS011;4095;48.942;9.104;2023-08-21T13:59:57;5.32;;;3.95;;
8104;SDS011;4095;48.942;9.104;2023-08-21T14:02:26;5.22;;;4.10;;
8104;SDS011;4095;48.942;9.104;2023-08-21T14:04:51;5.40;;;3.85;;
8104;SDS011;4095;48.942;9.104;2023-08-21T14:07:17;4.88;;;3.78;;
8104;SDS011;4095;48.942;9.104;2023-08-21T14:09:43;6.57;;;3.80;;
8104;SDS011;4095;48.942;9.104;2023-08-21T14:12:08;6.22;;;4.03;;
8104;SDS011;4095;48.942;9.104;2023-08-21T14:14:34;4.60;;;3.90;;
8104;SDS011;4095;48.942;9.104;2023-08-21T14:17:01;4.18;;;3.70;;
8104;SDS011;4095;48.942;9.104;2023-08-21T14:19:26;6.05;;;4.15;;
8104;SDS011;4095;48.942;9.104;2023-08-21T14:21:53;5.70;;;3.80;;
8104;SDS011;4095;48.942;9.104;2023-08-21T14:24:19;4.30;;;3.90;;
8104;SDS011;4095;48.942;9.104;2023-08-21T14:26:44;8.07;;;4.38;;
8104;SDS011;4095;48.942;9.104;2023-08-21T14:29:10;5.45;;;3.60;;
8104;SDS011;4095;48.942;9.104;2023-08-21T14:31:35;5.22;;;3.67;;
8104;SDS011;4095;48.942;9.104;2023-08-21T14:34:01;5.10;;;3.75;;
8104;SDS011;4095;48.942;9.104;2023-08-21T14:36:26;4.65;;;4.13;;
8104;SDS011;4095;48.942;9.104;2023-08-21T14:38:52;6.15;;;4.10;;
8104;SDS011;4095;48.942;9.104;2023-08-21T14:41:18;4.32;;;3.65;;
8104;SDS011;4095;48.942;9.104;2023-08-21T14:43:43;5.72;;;3.75;;
8104;SDS011;4095;48.942;9.104;2023-08-21T14:46:09;4.97;;;4.03;;
8104;SDS011;4095;48.942;9.104;2023-08-21T14:48:35;5.18;;;4.03;;
8104;SDS011;4095;48.942;9.104;2023-08-21T14:51:01;6.43;;;4.00;;
8104;SDS011;4095;48.942;9.104;2023-08-21T14:53:27;5.95;;;4.38;;
8104;SDS011;4095;48.942;9.104;2023-08-21T14:55:52;6.65;;;4.22;;
8104;SDS011;4095;48.942;9.104;2023-08-21T14:58:18;6.25;;;3.95;;
8104;SDS011;4095;48.942;9.104;2023-08-21T15:00:43;6.45;;;4.43;;
8104;SDS011;4095;48.942;9.104;2023-08-21T15:03:09;4.32;;;3.92;;
8104;SDS011;4095;48.942;9.104;2023-08-21T15:05:35;5.75;;;3.92;;
8104;SDS011;4095;48.942;9.104;2023-08-21T15:08:00;6.55;;;4.32;;
8104;SDS011;4095;48.942;9.104;2023-08-21T15:10:27;8.13;;;4.00;;
8104;SDS011;4095;48.942;9.104;2023-08-21T15:12:53;5.47;;;4.13;;
8104;SDS011;4095;48.942;9.104;2023-08-21T15:15:19;5.03;;;4.07;;
8104;SDS011;4095;48.942;9.104;2023-08-21T15:17:47;5.40;;;3.85;;
8104;SDS011;4095;48.942;9.104;2023-08-21T15:20:13;5.22;;;4.10;;
8104;SDS011;4095;48.942;9.104;2023-08-21T15:22:40;4.88;;;3.97;;
8104;SDS011;4095;48.942;9.104;2023-08-21T15:25:07;6.80;;;4.10;;
8104;SDS011;4095;48.942;9.104;2023-08-21T15:27:33;6.72;;;4.22;;
8104;SDS011;4095;48.942;9.104;2023-08-21T15:29:59;4.18;;;3.83;;
8104;SDS011;4095;48.942;9.104;2023-08-21T15:32:25;5.63;;;4.10;;
8104;SDS011;4095;48.942;9.104;2023-08-21T15:34:50;6.25;;;4.38;;
8104;SDS011;4095;48.942;9.104;2023-08-21T15:37:16;4.72;;;4.25;;